Time;durP1;ratioP1;P1;durP2;ratioP2;P2;SDS_P1;SDS_P2;PMS_P1;PMS_P2;Temp;Humidity;BMP_temperature;BMP_pressure;BME280_temperature;BME280_humidity;BME280_pressure;Samples;Min_cycle;Max_cycle;Signal;HPM_P1;HPM_P2
2022/04/23 00:02:18;;;;;;;0.40;0.40;;;7.90;75.20;;;;;;4956409;29;20027;-72
2022/04/23 00:04:44;;;;;;;0.50;0.50;;;7.90;75.30;;;;;;4956085;29;20045;-72
2022/04/23 00:07:10;;;;;;;0.40;0.40;;;7.90;75.50;;;;;;4956138;29;20023;-72
2022/04/23 00:09:35;;;;;;;0.68;0.50;;;7.80;75.30;;;;;;4956246;29;20023;-72
2022/04/23 00:12:01;;;;;;;0.38;0.38;;;7.80;75.50;;;;;;4956361;29;20051;-72
2022/04/23 00:14:28;;;;;;;1.30;0.40;;;7.90;75.70;;;;;;4956496;29;20024;-72
2022/04/23 00:16:54;;;;;;;1.45;0.60;;;7.80;75.70;;;;;;4955955;29;20027;-72
2022/04/23 00:19:20;;;;;;;2.85;0.43;;;7.80;75.90;;;;;;4956038;29;20027;-81
2022/04/23 00:21:46;;;;;;;0.40;0.40;;;7.80;76.00;;;;;;4956141;29;20081;-77
2022/04/23 00:24:12;;;;;;;0.82;0.40;;;7.80;76.20;;;;;;4955900;29;20031;-77
2022/04/23 00:26:37;;;;;;;0.50;0.40;;;7.80;76.30;;;;;;4955854;29;20031;-77
2022/04/23 00:29:03;;;;;;;0.50;0.50;;;7.80;76.30;;;;;;4955676;29;20034;-79
2022/04/23 00:31:29;;;;;;;0.40;0.40;;;7.70;76.40;;;;;;4956005;29;20023;-79
2022/04/23 00:33:55;;;;;;;0.45;0.43;;;7.70;76.50;;;;;;4955532;29;20031;-80
2022/04/23 00:36:23;;;;;;;1.23;0.40;;;7.80;76.80;;;;;;4938142;28;20086;-79
2022/04/23 00:38:53;;;;;;;0.63;0.45;;;7.80;77.00;;;;;;4955577;29;20094;-79
2022/04/23 00:44:04;;;;;;;1.25;0.80;;;7.80;76.70;;;;;;4955429;29;20051;-81
2022/04/23 00:46:30;;;;;;;0.40;0.40;;;7.80;76.90;;;;;;4955321;29;20503;-81
2022/04/23 00:48:58;;;;;;;1.17;0.45;;;7.80;77.20;;;;;;4955624;29;20039;-81
2022/04/23 00:51:27;;;;;;;0.75;0.65;;;7.70;77.30;;;;;;4955218;29;20542;-80
2022/04/23 00:53:53;;;;;;;0.60;0.60;;;7.80;77.50;;;;;;4955261;29;20031;-79
2022/04/23 00:56:20;;;;;;;0.52;0.40;;;7.80;77.50;;;;;;4955179;29;20483;-80
2022/04/23 00:58:46;;;;;;;2.13;0.63;;;7.70;77.80;;;;;;4954837;28;20023;-80
2022/04/23 01:01:12;;;;;;;0.77;0.50;;;7.70;77.90;;;;;;4954927;29;20043;-81
2022/04/23 01:03:39;;;;;;;0.70;0.70;;;7.70;78.10;;;;;;4955163;29;20078;-79
2022/04/23 01:06:06;;;;;;;0.82;0.50;;;7.70;78.00;;;;;;4954923;29;20046;-82
2022/04/23 01:08:33;;;;;;;0.82;0.40;;;7.70;78.20;;;;;;4955052;29;20023;-83
2022/04/23 01:10:59;;;;;;;0.77;0.50;;;7.60;78.50;;;;;;4955180;29;20038;-82
2022/04/23 01:13:25;;;;;;;1.00;0.45;;;7.60;78.40;;;;;;4954966;29;20498;-82
2022/04/23 01:15:58;;;;;;;0.68;0.50;;;7.60;78.80;;;;;;4954860;29;20031;-82
2022/04/23 01:18:23;;;;;;;1.90;0.50;;;7.60;78.80;;;;;;4955183;29;20122;-82
2022/04/23 01:20:49;;;;;;;0.80;0.47;;;7.50;78.90;;;;;;4955068;29;20123;-81
2022/04/23 01:23:15;;;;;;;0.85;0.52;;;7.50;79.20;;;;;;4954962;29;20415;-82
2022/04/23 01:25:41;;;;;;;1.05;0.60;;;7.50;79.40;;;;;;4954873;29;20027;-82
2022/04/23 01:28:09;;;;;;;0.57;0.40;;;7.50;79.50;;;;;;4954831;29;20468;-82
2022/04/23 01:30:35;;;;;;;0.45;0.45;;;7.50;79.60;;;;;;4954752;29;20031;-82
2022/04/23 01:33:01;;;;;;;1.10;0.60;;;7.50;79.50;;;;;;4954479;29;20027;-82
2022/04/23 01:35:27;;;;;;;2.33;0.70;;;7.50;79.70;;;;;;4954735;28;20106;-82
2022/04/23 01:37:53;;;;;;;3.75;0.60;;;7.50;79.90;;;;;;4954259;28;20044;-80
2022/04/23 01:40:19;;;;;;;0.60;0.55;;;7.50;79.90;;;;;;4954447;29;20042;-81
2022/04/23 01:42:45;;;;;;;1.70;0.50;;;7.50;79.90;;;;;;4954321;29;20027;-81
2022/04/23 01:45:11;;;;;;;0.32;0.32;;;7.50;80.10;;;;;;4954299;29;20038;-81
2022/04/23 01:47:37;;;;;;;0.45;0.45;;;7.40;80.20;;;;;;4954410;29;20023;-82
2022/04/23 01:50:03;;;;;;;0.70;0.60;;;7.40;80.50;;;;;;4954307;29;20163;-81
2022/04/23 01:52:29;;;;;;;1.35;0.60;;;7.40;80.60;;;;;;4954268;29;20487;-78
2022/04/23 01:54:54;;;;;;;1.60;0.60;;;7.40;80.60;;;;;;4954067;29;20023;-78
2022/04/23 01:57:20;;;;;;;1.38;0.60;;;7.40;80.90;;;;;;4954395;29;20075;-78
2022/04/23 01:59:46;;;;;;;1.58;0.40;;;7.40;80.90;;;;;;4954162;29;20025;-78
2022/04/23 02:02:11;;;;;;;1.85;0.50;;;7.40;81.10;;;;;;4954235;29;20031;-78
2022/04/23 02:04:37;;;;;;;7.22;0.80;;;7.30;81.20;;;;;;4954108;29;20372;-78
2022/04/23 02:07:03;;;;;;;3.75;0.55;;;7.30;81.50;;;;;;4954203;29;20027;-78
2022/04/23 02:09:29;;;;;;;0.65;0.50;;;7.30;81.60;;;;;;4954348;29;20023;-78
2022/04/23 02:11:56;;;;;;;1.30;0.50;;;7.30;81.80;;;;;;4953057;28;20031;-78
2022/04/23 02:14:22;;;;;;;1.00;0.60;;;7.30;82.10;;;;;;4954030;29;20561;-78
2022/04/23 02:16:48;;;;;;;0.95;0.50;;;7.30;82.20;;;;;;4953920;29;20027;-78
2022/04/23 02:19:13;;;;;;;0.50;0.50;;;7.20;82.30;;;;;;4953991;29;20027;-79
2022/04/23 02:21:39;;;;;;;0.70;0.60;;;7.20;82.50;;;;;;4953851;29;20042;-79
2022/04/23 02:55:38;;;;;;;0.55;0.50;;;7.10;85.50;;;;;;4961722;28;20137;-80
2022/04/23 02:58:09;;;;;;;1.85;0.50;;;7.00;85.80;;;;;;4952198;29;20086;-79
2022/04/23 03:00:42;;;;;;;0.82;0.50;;;7.00;86.30;;;;;;4953721;29;20031;-80
2022/04/23 03:36:52;;;;;;;0.50;0.50;;;7.00;88.80;;;;;;5791567;23;20418;-82
2022/04/23 03:39:18;;;;;;;0.50;0.50;;;7.00;89.30;;;;;;4976043;28;20027;-81
2022/04/23 03:41:44;;;;;;;0.50;0.50;;;7.00;89.70;;;;;;4975924;28;20161;-81
2022/04/23 03:44:09;;;;;;;0.50;0.50;;;7.00;89.80;;;;;;4975717;28;20379;-80
2022/04/23 03:46:35;;;;;;;1.30;0.65;;;7.00;90.00;;;;;;4976720;28;20038;-79
2022/04/23 03:49:01;;;;;;;0.68;0.45;;;7.00;90.00;;;;;;4995779;28;20414;-79
2022/04/23 03:51:27;;;;;;;1.85;0.40;;;6.90;90.00;;;;;;4995409;28;20031;-81
2022/04/23 03:53:52;;;;;;;0.88;0.43;;;6.90;90.20;;;;;;4995059;28;20110;-80
2022/04/23 03:56:18;;;;;;;0.60;0.50;;;6.90;90.40;;;;;;4977907;28;20085;-79
2022/04/23 03:58:45;;;;;;;0.40;0.40;;;6.80;90.60;;;;;;4977677;28;20030;-78
2022/04/23 04:01:10;;;;;;;0.57;0.40;;;6.90;90.70;;;;;;4995054;28;20033;-79
2022/04/23 04:03:36;;;;;;;0.40;0.40;;;6.80;90.80;;;;;;4995100;28;20023;-78
2022/04/23 04:06:02;;;;;;;0.95;0.60;;;6.90;91.00;;;;;;4994948;28;20449;-78
2022/04/23 04:08:28;;;;;;;0.60;0.60;;;6.90;91.10;;;;;;4995104;28;20031;-78
2022/04/23 04:10:54;;;;;;;1.67;0.47;;;6.90;91.40;;;;;;4994968;28;20026;-78
2022/04/23 04:13:20;;;;;;;0.60;0.60;;;6.80;91.40;;;;;;4994900;28;20023;-79
2022/04/23 04:15:47;;;;;;;0.77;0.60;;;6.80;91.60;;;;;;4994825;28;20038;-79
2022/04/23 04:18:14;;;;;;;0.65;0.40;;;6.80;91.80;;;;;;4994637;28;20523;-79
2022/04/23 04:20:40;;;;;;;3.50;0.65;;;6.70;92.10;;;;;;4994780;28;20027;-78
2022/04/23 04:23:07;;;;;;;1.00;0.50;;;6.80;92.10;;;;;;4994596;28;20026;-81
2022/04/23 04:25:34;;;;;;;1.45;0.60;;;6.80;92.40;;;;;;4994583;28;20092;-78
2022/04/23 04:28:01;;;;;;;1.27;0.43;;;6.80;92.50;;;;;;4994485;28;20061;-79
2022/04/23 04:30:27;;;;;;;1.17;0.50;;;6.70;92.50;;;;;;4994552;28;20117;-72
2022/04/23 04:32:53;;;;;;;0.60;0.60;;;6.70;92.60;;;;;;4994290;28;20165;-70
2022/04/23 04:35:19;;;;;;;1.23;0.50;;;6.70;92.70;;;;;;4993553;28;20037;-69
2022/04/23 04:37:44;;;;;;;2.25;0.57;;;6.80;93.00;;;;;;4994273;28;20042;-69
2022/04/23 04:40:11;;;;;;;5.07;0.80;;;6.70;94.10;;;;;;4994203;28;20035;-70
2022/04/23 04:42:37;;;;;;;1.63;0.50;;;7.90;99.90;;;;;;4994104;28;20015;-70
2022/04/23 04:45:03;;;;;;;0.43;0.43;;;8.40;99.90;;;;;;4992422;28;20181;-69
2022/04/23 04:47:29;;;;;;;0.45;0.45;;;8.00;95.00;;;;;;4986625;28;20019;-69
2022/04/23 04:49:55;;;;;;;0.50;0.50;;;7.70;94.70;;;;;;4990515;28;20030;-69
2022/04/23 04:52:21;;;;;;;2.47;0.50;;;7.40;94.90;;;;;;4988064;28;20015;-69
2022/04/23 04:54:47;;;;;;;0.85;0.45;;;7.30;96.70;;;;;;4993067;28;20110;-70
2022/04/23 04:57:12;;;;;;;2.15;0.50;;;7.20;96.00;;;;;;4986271;28;20041;-77
2022/04/23 04:59:39;;;;;;;0.47;0.45;;;7.20;95.90;;;;;;4988583;28;20492;-74
2022/04/23 05:02:05;;;;;;;0.47;0.47;;;7.20;95.90;;;;;;4962045;28;20433;-74
2022/04/23 05:04:31;;;;;;;0.82;0.40;;;7.10;95.60;;;;;;4985815;28;20096;-73
2022/04/23 05:06:57;;;;;;;0.55;0.43;;;7.10;95.60;;;;;;4979230;28;20086;-73
2022/04/23 05:09:23;;;;;;;0.65;0.50;;;7.10;95.70;;;;;;4989557;28;20033;-73
2022/04/23 05:11:49;;;;;;;1.13;0.40;;;7.10;95.80;;;;;;4987736;28;20039;-73
2022/04/23 05:14:16;;;;;;;0.40;0.40;;;7.00;95.90;;;;;;4987742;28;20029;-72
2022/04/23 05:16:43;;;;;;;0.47;0.47;;;7.00;96.10;;;;;;4993392;28;20528;-72
2022/04/23 05:19:09;;;;;;;0.50;0.50;;;6.90;96.00;;;;;;4986127;28;20054;-72
2022/04/23 05:21:35;;;;;;;0.90;0.50;;;6.90;96.30;;;;;;4993850;28;20034;-73
2022/04/23 05:24:01;;;;;;;11.40;1.00;;;6.90;96.50;;;;;;4975957;28;20489;-75
2022/04/23 05:26:26;;;;;;;0.60;0.60;;;7.00;97.70;;;;;;4993774;28;20038;-73
2022/04/23 05:28:52;;;;;;;2.22;1.08;;;7.00;96.90;;;;;;4993011;28;20034;-76
2022/04/23 05:31:18;;;;;;;0.50;0.50;;;7.00;96.70;;;;;;4993609;28;20452;-75
2022/04/23 05:33:43;;;;;;;0.60;0.55;;;7.00;96.60;;;;;;4993518;28;20030;-73
2022/04/23 05:36:09;;;;;;;1.35;0.60;;;7.00;96.50;;;;;;4993182;28;20481;-73
2022/04/23 05:38:35;;;;;;;2.25;0.60;;;7.00;96.80;;;;;;4993121;28;20061;-72
2022/04/23 05:41:01;;;;;;;29.65;1.77;;;7.00;96.70;;;;;;4993142;28;20014;-72
2022/04/23 05:43:27;;;;;;;0.95;0.40;;;7.00;97.00;;;;;;4993126;28;20449;-72
2022/04/23 05:45:52;;;;;;;0.95;0.55;;;7.00;96.90;;;;;;4993026;28;20125;-72
2022/04/23 05:48:18;;;;;;;0.50;0.50;;;7.00;97.00;;;;;;4992953;28;20066;-72
2022/04/23 05:50:44;;;;;;;3.42;0.60;;;7.00;96.80;;;;;;4992873;28;20097;-68
2022/04/23 05:53:11;;;;;;;11.60;0.88;;;7.00;96.80;;;;;;4992812;28;20026;-68
2022/04/23 05:55:36;;;;;;;5.85;0.50;;;7.00;96.80;;;;;;4993256;28;20038;-68
2022/04/23 05:58:02;;;;;;;2.58;0.70;;;7.10;96.90;;;;;;4992957;28;20430;-67
2022/04/23 06:00:28;;;;;;;2.40;0.50;;;7.10;96.80;;;;;;4992930;28;20022;-68
2022/04/23 06:02:54;;;;;;;1.65;0.50;;;7.10;96.70;;;;;;4975422;28;20049;-68
2022/04/23 06:05:20;;;;;;;0.77;0.60;;;7.10;96.70;;;;;;4993082;28;20113;-68
2022/04/23 06:07:45;;;;;;;1.52;0.55;;;7.20;99.00;;;;;;4991300;28;20351;-65
2022/04/23 06:10:11;;;;;;;1.05;0.60;;;7.30;97.80;;;;;;4971563;28;20038;-67
2022/04/23 06:12:37;;;;;;;0.50;0.40;;;7.20;96.40;;;;;;4974234;28;20449;-66
2022/04/23 06:15:03;;;;;;;2.78;0.60;;;7.20;96.50;;;;;;4971205;28;20039;-67
2022/04/23 06:17:29;;;;;;;1.50;0.80;;;7.20;96.70;;;;;;4972969;28;20031;-67
2022/04/23 06:19:55;;;;;;;1.90;0.60;;;7.30;96.70;;;;;;4972824;28;20046;-68
2022/04/23 06:22:25;;;;;;;18.58;1.45;;;7.30;96.70;;;;;;4972901;28;20027;-69
2022/04/23 06:24:51;;;;;;;1.02;0.80;;;7.40;96.20;;;;;;4972832;28;20494;-66
2022/04/23 06:27:17;;;;;;;0.73;0.57;;;7.30;96.10;;;;;;4980690;28;20122;-66
2022/04/23 06:29:42;;;;;;;2.55;0.50;;;7.40;96.10;;;;;;4988624;28;20114;-67
2022/04/23 06:32:09;;;;;;;1.55;0.40;;;7.40;96.40;;;;;;4991742;28;20081;-66
2022/04/23 06:34:39;;;;;;;2.40;0.50;;;7.40;96.00;;;;;;4992411;28;20433;-68
2022/04/23 06:37:05;;;;;;;0.82;0.40;;;7.50;95.90;;;;;;4992170;28;20046;-69
2022/04/23 06:39:31;;;;;;;7.68;0.88;;;7.40;95.60;;;;;;4991977;28;20506;-71
2022/04/23 06:41:57;;;;;;;0.93;0.60;;;7.40;95.70;;;;;;4991509;28;20026;-68
2022/04/23 06:44:23;;;;;;;0.68;0.68;;;7.50;95.60;;;;;;4992584;28;20335;-69
2022/04/23 06:46:49;;;;;;;1.50;0.40;;;7.50;95.30;;;;;;4992513;28;20033;-67
2022/04/23 06:49:14;;;;;;;3.70;0.50;;;7.90;99.90;;;;;;4992320;28;20021;-67
2022/04/23 06:51:40;;;;;;;0.55;0.52;;;8.40;99.90;;;;;;4992705;28;20058;-67
2022/04/23 06:54:07;;;;;;;1.60;0.57;;;8.40;96.10;;;;;;4992506;28;20026;-71
2022/04/23 06:56:33;;;;;;;0.47;0.47;;;8.10;94.50;;;;;;4992352;28;20027;-70
2022/04/23 06:58:59;;;;;;;0.85;0.40;;;7.90;94.50;;;;;;4995471;28;20105;-74
2022/04/23 07:01:25;;;;;;;3.20;0.60;;;7.80;94.80;;;;;;4996140;28;20053;-71
2022/04/23 07:03:51;;;;;;;1.52;0.50;;;7.70;94.70;;;;;;4996056;28;20394;-71
2022/04/23 07:06:17;;;;;;;2.42;0.50;;;7.70;95.20;;;;;;4996195;28;20030;-72
2022/04/23 07:08:44;;;;;;;0.50;0.50;;;7.80;94.90;;;;;;4995919;28;20037;-72
2022/04/23 07:11:10;;;;;;;4.53;0.90;;;7.80;94.80;;;;;;4995776;28;20417;-69
2022/04/23 07:13:37;;;;;;;1.40;0.55;;;7.70;97.50;;;;;;4995892;28;20022;-72
2022/04/23 07:16:04;;;;;;;0.40;0.40;;;9.30;99.90;;;;;;4995775;28;20117;-72
2022/04/23 07:18:31;;;;;;;1.48;0.60;;;9.10;93.30;;;;;;4995773;28;20453;-70
2022/04/23 07:20:57;;;;;;;1.08;0.65;;;8.80;92.40;;;;;;4995795;28;20387;-72
2022/04/23 07:26:06;;;;;;;3.67;1.17;;;8.40;92.30;;;;;;4995647;28;20508;-72
2022/04/23 07:28:32;;;;;;;0.50;0.50;;;8.20;92.60;;;;;;4995637;28;20027;-72
2022/04/23 07:31:00;;;;;;;0.63;0.50;;;8.20;93.00;;;;;;4995520;28;20038;-70
2022/04/23 07:38:54;;;;;;;0.65;0.50;;;8.10;93.20;;;;;;4995761;28;20528;-69
2022/04/23 07:41:20;;;;;;;2.30;0.40;;;8.00;92.70;;;;;;4978189;28;20114;-73
2022/04/23 07:43:46;;;;;;;8.88;0.80;;;8.00;92.80;;;;;;4995252;28;20130;-71
2022/04/23 07:46:12;;;;;;;5.82;0.80;;;8.00;92.90;;;;;;4995237;28;20030;-79
2022/04/23 07:48:38;;;;;;;0.88;0.60;;;8.10;92.90;;;;;;4995266;28;20031;-73
2022/04/23 07:51:04;;;;;;;1.25;0.50;;;8.10;92.70;;;;;;4995155;28;20026;-70
2022/04/23 07:53:29;;;;;;;5.35;0.98;;;8.90;99.90;;;;;;4995424;28;20028;-68
2022/04/23 07:55:55;;;;;;;9.73;1.02;;;10.50;99.90;;;;;;4995447;28;20105;-70
2022/04/23 07:58:21;;;;;;;3.25;0.60;;;11.40;99.90;;;;;;4994893;28;20108;-70
2022/04/23 08:00:46;;;;;;;0.57;0.50;;;10.80;86.90;;;;;;4977929;28;20026;-71
2022/04/23 08:03:12;;;;;;;0.40;0.40;;;10.10;85.70;;;;;;4994990;28;20046;-70
2022/04/23 08:05:38;;;;;;;0.50;0.40;;;9.40;87.20;;;;;;4994962;28;20120;-70
2022/04/23 08:08:04;;;;;;;10.88;1.23;;;9.10;89.00;;;;;;4994454;28;20415;-70
2022/04/23 08:10:30;;;;;;;3.03;0.60;;;9.00;90.00;;;;;;4994074;28;20033;-71
2022/04/23 08:12:56;;;;;;;0.98;0.50;;;9.00;90.00;;;;;;4994661;28;20026;-70
2022/04/23 08:15:22;;;;;;;1.20;0.55;;;8.90;90.00;;;;;;4994870;28;20026;-70
2022/04/23 08:17:48;;;;;;;0.98;0.60;;;8.80;89.60;;;;;;4994599;28;20589;-70
2022/04/23 08:20:14;;;;;;;1.83;0.50;;;8.70;89.60;;;;;;4994736;28;20043;-70
2022/04/23 08:22:40;;;;;;;10.32;1.30;;;8.70;89.90;;;;;;4994750;28;20036;-71
2022/04/23 08:25:07;;;;;;;25.48;1.60;;;8.70;90.00;;;;;;4994149;28;20038;-70
2022/04/23 08:27:53;;;;;;;0.77;0.50;;;8.80;89.80;;;;;;4994595;28;20205;-70
2022/04/23 08:30:36;;;;;;;0.60;0.60;;;8.60;88.80;;;;;;4994602;28;20110;-70
2022/04/23 08:33:05;;;;;;;1.00;0.50;;;8.60;89.90;;;;;;4994464;28;20054;-70
2022/04/23 08:35:32;;;;;;;0.98;0.50;;;8.60;89.10;;;;;;4994461;28;20018;-70
2022/04/23 08:37:59;;;;;;;1.80;0.50;;;8.60;88.70;;;;;;4993766;28;20054;-70
2022/04/23 08:40:26;;;;;;;1.10;0.52;;;8.40;88.10;;;;;;4994414;28;20066;-70
2022/04/23 08:42:52;;;;;;;0.40;0.40;;;8.50;88.70;;;;;;4994597;28;20077;-70
2022/04/23 08:45:18;;;;;;;0.40;0.40;;;8.50;88.60;;;;;;4993850;28;20741;-70
2022/04/23 08:47:45;;;;;;;1.25;0.50;;;8.50;87.80;;;;;;4994189;28;20109;-70
2022/04/23 08:50:11;;;;;;;3.28;0.70;;;8.60;87.50;;;;;;4993846;28;20030;-71
2022/04/23 08:52:41;;;;;;;1.13;0.50;;;8.50;86.90;;;;;;4994038;28;20026;-70
2022/04/23 08:55:07;;;;;;;8.20;0.63;;;8.50;87.10;;;;;;4993820;28;20027;-70
2022/04/23 08:57:33;;;;;;;1.75;0.50;;;8.50;86.90;;;;;;4993940;28;20073;-70
2022/04/23 09:00:00;;;;;;;17.77;1.42;;;8.50;87.00;;;;;;4993617;28;20021;-70
2022/04/23 09:02:28;;;;;;;3.13;0.50;;;8.50;87.40;;;;;;4993760;28;20027;-70
2022/04/23 09:04:55;;;;;;;1.77;0.90;;;8.60;87.60;;;;;;4993913;28;20089;-71
2022/04/23 09:07:26;;;;;;;2.03;0.80;;;8.60;87.40;;;;;;4993493;28;20029;-70
2022/04/23 09:09:53;;;;;;;2.53;0.70;;;8.60;87.80;;;;;;4993968;28;20105;-71
2022/04/23 09:12:22;;;;;;;0.70;0.70;;;8.60;87.60;;;;;;4993712;28;20522;-70
2022/04/23 09:14:48;;;;;;;0.98;0.65;;;8.70;88.70;;;;;;4993847;28;20026;-70
2022/04/23 09:26:19;;;;;;;2.47;0.40;;;8.90;83.30;;;;;;4989630;28;20053;-70
2022/04/23 09:28:50;;;;;;;1.27;0.57;;;9.00;82.90;;;;;;4976019;28;20072;-71
2022/04/23 09:31:16;;;;;;;6.32;0.60;;;9.00;82.40;;;;;;4993427;28;20038;-71
2022/04/23 09:33:52;;;;;;;9.07;0.80;;;9.10;82.00;;;;;;4993249;28;20053;-70
2022/04/23 09:36:18;;;;;;;5.25;0.77;;;9.00;81.50;;;;;;4993222;28;20062;-70
2022/04/23 09:39:03;;;;;;;0.40;0.40;;;9.00;81.10;;;;;;4993101;28;20037;-70
2022/04/23 09:41:33;;;;;;;2.63;0.60;;;8.90;80.30;;;;;;4993550;28;20030;-70
2022/04/23 09:44:09;;;;;;;26.55;1.60;;;8.90;80.40;;;;;;4993134;28;20178;-71
2022/04/23 09:46:46;;;;;;;5.43;0.40;;;8.90;81.00;;;;;;4993040;28;20403;-70
2022/04/23 09:49:12;;;;;;;2.53;0.60;;;8.90;81.60;;;;;;4993272;28;20022;-71
2022/04/23 09:51:38;;;;;;;0.68;0.40;;;9.10;83.80;;;;;;4993278;28;20473;-71
2022/04/23 09:54:04;;;;;;;4.00;0.60;;;9.20;80.60;;;;;;4992866;28;20037;-71
2022/04/23 09:56:30;;;;;;;0.47;0.40;;;9.20;81.00;;;;;;4992886;28;20058;-73
2022/04/23 09:58:56;;;;;;;2.90;0.63;;;9.20;80.60;;;;;;4992913;28;20058;-73
2022/04/23 10:01:23;;;;;;;2.45;0.70;;;9.20;80.30;;;;;;4992451;28;20203;-76
2022/04/23 10:03:53;;;;;;;0.90;0.50;;;9.20;80.40;;;;;;4992479;28;20030;-71
2022/04/23 10:06:21;;;;;;;2.67;0.68;;;9.20;80.40;;;;;;4992160;28;20034;-71
2022/04/23 10:08:51;;;;;;;7.30;0.90;;;9.30;80.50;;;;;;4992799;28;20032;-71
2022/04/23 10:11:28;;;;;;;1.90;0.55;;;9.40;79.60;;;;;;4993023;28;20414;-71
2022/04/23 10:13:59;;;;;;;2.03;0.60;;;9.50;79.10;;;;;;4992906;28;20085;-71
2022/04/23 10:16:27;;;;;;;0.40;0.40;;;9.60;78.60;;;;;;4992643;28;20054;-71
2022/04/23 10:18:55;;;;;;;6.07;0.65;;;9.60;77.40;;;;;;4992619;28;20045;-71
2022/04/23 10:21:34;;;;;;;1.42;0.50;;;9.60;76.70;;;;;;4992464;28;20038;-72
2022/04/23 10:24:19;;;;;;;6.40;0.52;;;9.60;77.00;;;;;;4975073;28;20077;-72
2022/04/23 10:26:54;;;;;;;8.27;0.70;;;9.60;77.50;;;;;;4992570;28;20409;-72
2022/04/23 10:29:22;;;;;;;2.33;0.52;;;9.70;77.60;;;;;;4992483;28;20026;-71
2022/04/23 10:32:16;;;;;;;3.55;0.55;;;9.70;76.90;;;;;;4975091;28;20027;-71
2022/04/23 10:34:43;;;;;;;2.95;0.50;;;9.70;76.50;;;;;;4973110;28;20431;-71
2022/04/23 10:37:28;;;;;;;1.08;0.50;;;9.60;77.50;;;;;;4972671;28;20134;-71
2022/04/23 10:39:53;;;;;;;7.28;1.02;;;9.50;77.30;;;;;;4963374;28;20030;-72
2022/04/23 10:42:21;;;;;;;1.13;0.63;;;9.50;78.30;;;;;;4992076;28;20069;-71
2022/04/23 10:44:49;;;;;;;2.55;0.60;;;9.60;78.80;;;;;;4992359;28;20092;-73
2022/04/23 10:47:32;;;;;;;6.38;0.63;;;9.70;80.20;;;;;;4992221;28;20026;-80
2022/04/23 10:50:13;;;;;;;7.97;0.80;;;9.60;77.90;;;;;;4992421;28;20102;-73
2022/04/23 10:52:40;;;;;;;4.78;0.60;;;10.20;81.10;;;;;;4992169;28;20050;-73
2022/04/23 10:55:07;;;;;;;13.85;0.90;;;10.10;77.40;;;;;;4992312;28;20037;-73
2022/04/23 10:57:34;;;;;;;1.83;0.50;;;10.10;76.40;;;;;;4992244;28;20593;-73
2022/04/23 11:00:16;;;;;;;6.93;0.50;;;10.00;76.10;;;;;;4992186;28;20022;-73
2022/04/23 11:02:46;;;;;;;2.28;0.52;;;10.00;75.10;;;;;;4992305;28;20030;-73
2022/04/23 11:13:56;;;;;;;0.98;0.50;;;10.00;75.80;;;;;;4992139;28;20026;-73
2022/04/23 11:16:25;;;;;;;1.13;0.50;;;10.00;76.10;;;;;;4992037;28;20026;-73
2022/04/23 11:18:55;;;;;;;4.55;0.70;;;10.00;75.40;;;;;;4992132;28;20027;-73
2022/04/23 11:21:26;;;;;;;0.70;0.70;;;9.80;75.40;;;;;;4991948;28;20498;-73
2022/04/23 11:23:54;;;;;;;5.15;0.77;;;9.80;76.40;;;;;;4991932;28;20120;-73
2022/04/23 11:26:22;;;;;;;6.90;0.80;;;9.70;77.10;;;;;;4974367;28;20038;-73
2022/04/23 11:28:57;;;;;;;7.47;0.98;;;9.70;77.00;;;;;;4992031;28;20362;-73
2022/04/23 11:31:24;;;;;;;8.45;0.88;;;9.70;76.20;;;;;;4992096;28;20390;-73
2022/04/23 11:33:57;;;;;;;14.48;2.17;;;9.60;76.70;;;;;;4991870;28;20031;-73
2022/04/23 11:36:42;;;;;;;13.80;1.95;;;9.60;76.40;;;;;;4974200;28;20026;-73
2022/04/23 11:39:09;;;;;;;16.60;1.48;;;9.70;75.60;;;;;;4991584;28;20485;-73
2022/04/23 11:41:41;;;;;;;10.13;0.68;;;9.70;75.50;;;;;;4992155;28;20038;-73
2022/04/23 11:47:13;;;;;;;4.82;0.43;;;9.60;73.60;;;;;;4995402;28;20081;-73
2022/04/23 11:49:38;;;;;;;8.52;0.85;;;9.50;72.30;;;;;;4995259;28;20549;-73
2022/04/23 11:52:11;;;;;;;7.05;0.60;;;9.40;72.50;;;;;;4995260;28;20105;-73
2022/04/23 11:54:42;;;;;;;8.77;0.70;;;9.40;73.40;;;;;;4995392;28;20077;-73
2022/04/23 11:57:13;;;;;;;5.00;0.73;;;9.40;72.80;;;;;;4995083;28;20105;-73
2022/04/23 11:59:41;;;;;;;1.98;0.52;;;9.50;72.50;;;;;;4995152;28;20373;-73
2022/04/23 12:02:22;;;;;;;2.63;0.63;;;9.60;72.50;;;;;;4995364;28;20031;-73
2022/04/23 12:04:50;;;;;;;0.90;0.50;;;9.60;71.30;;;;;;4995013;28;20040;-73
2022/04/23 12:07:17;;;;;;;5.82;0.60;;;9.60;71.10;;;;;;4994764;28;20489;-73
2022/04/23 12:10:09;;;;;;;3.65;0.70;;;9.60;70.50;;;;;;4995158;28;20026;-73
2022/04/23 12:12:35;;;;;;;4.18;0.50;;;9.60;70.40;;;;;;4991978;28;20035;-73
2022/04/23 12:15:11;;;;;;;2.30;0.40;;;9.70;70.40;;;;;;4994790;28;20023;-73
2022/04/23 12:17:47;;;;;;;6.03;0.50;;;9.80;69.20;;;;;;4994789;28;20029;-73
2022/04/23 12:20:15;;;;;;;4.97;0.85;;;9.80;69.00;;;;;;4994603;28;20026;-73
2022/04/23 12:23:00;;;;;;;3.25;0.55;;;9.80;68.70;;;;;;4994759;28;20034;-73
2022/04/23 12:25:36;;;;;;;1.48;0.40;;;9.80;68.00;;;;;;4994525;28;20504;-73
2022/04/23 12:42:11;;;;;;;3.50;0.60;;;9.90;68.10;;;;;;4994691;28;20433;-72
2022/04/23 12:44:41;;;;;;;0.40;0.40;;;9.80;68.50;;;;;;4994537;28;20031;-73
2022/04/23 12:47:10;;;;;;;9.15;0.70;;;9.80;69.30;;;;;;4994308;28;20023;-73
2022/04/23 12:49:55;;;;;;;9.13;1.00;;;9.80;70.00;;;;;;4994179;28;20109;-73
2022/04/23 12:52:22;;;;;;;1.25;0.45;;;9.80;70.10;;;;;;4994109;28;20080;-73
2022/04/23 12:55:09;;;;;;;4.07;0.60;;;9.70;69.80;;;;;;4993626;28;20025;-73
2022/04/23 12:57:35;;;;;;;2.67;0.50;;;9.70;70.10;;;;;;4994031;28;20031;-73
2022/04/23 13:00:01;;;;;;;4.38;0.70;;;9.70;69.90;;;;;;4994357;28;20025;-73
2022/04/23 13:02:36;;;;;;;3.33;0.50;;;9.70;70.20;;;;;;4994449;28;20377;-73
2022/04/23 13:05:07;;;;;;;3.90;0.50;;;9.60;70.10;;;;;;4994077;28;20035;-73
2022/04/23 13:10:18;;;;;;;6.25;0.50;;;9.50;70.20;;;;;;4993716;28;20065;-73
2022/04/23 13:12:44;;;;;;;15.20;0.80;;;9.40;70.80;;;;;;4993851;28;20031;-73
2022/04/23 13:15:11;;;;;;;6.45;0.60;;;9.40;70.70;;;;;;4993853;28;20485;-73
2022/04/23 13:17:38;;;;;;;2.60;0.40;;;9.40;70.80;;;;;;4993631;28;20553;-73
2022/04/23 13:20:10;;;;;;;3.80;0.60;;;9.40;70.30;;;;;;4993700;28;20405;-73
2022/04/23 13:22:36;;;;;;;1.88;0.43;;;9.40;71.10;;;;;;4994063;28;20045;-73
2022/04/23 13:25:03;;;;;;;6.60;0.95;;;9.30;70.80;;;;;;4993446;28;20417;-73
2022/04/23 13:27:29;;;;;;;6.88;0.52;;;9.40;70.90;;;;;;4993361;28;20026;-73
2022/04/23 13:29:56;;;;;;;7.70;0.70;;;9.40;70.90;;;;;;4993641;28;20050;-73
2022/04/23 13:32:21;;;;;;;10.05;0.80;;;9.30;70.60;;;;;;4993371;28;20022;-73
2022/04/23 13:34:47;;;;;;;7.10;1.10;;;9.20;70.90;;;;;;4993328;28;20066;-73
2022/04/23 13:37:13;;;;;;;2.53;0.47;;;9.20;70.80;;;;;;4993022;28;20075;-73
2022/04/23 13:39:38;;;;;;;8.70;0.65;;;9.20;71.10;;;;;;4993227;28;20478;-73
2022/04/23 13:42:05;;;;;;;2.63;0.60;;;9.10;71.00;;;;;;4993169;28;20026;-73
2022/04/23 13:44:31;;;;;;;2.90;0.50;;;9.10;71.50;;;;;;4993185;28;20037;-72
2022/04/23 13:46:57;;;;;;;4.18;0.60;;;9.10;71.70;;;;;;4993150;28;20405;-73
2022/04/23 13:49:23;;;;;;;0.55;0.45;;;9.10;72.60;;;;;;4992914;28;20026;-73
2022/04/23 13:51:52;;;;;;;20.27;1.38;;;9.00;73.10;;;;;;4993134;28;20030;-73
2022/04/23 13:54:19;;;;;;;2.55;0.70;;;9.00;73.00;;;;;;4993078;28;20027;-73
2022/04/23 13:56:45;;;;;;;2.47;0.60;;;9.00;73.30;;;;;;4993333;28;20023;-73
2022/04/23 13:59:11;;;;;;;5.18;0.50;;;9.10;72.80;;;;;;4992860;28;20081;-73
2022/04/23 14:01:37;;;;;;;0.80;0.60;;;9.10;72.70;;;;;;4992816;28;20026;-73
2022/04/23 14:12:16;;;;;;;6.30;1.00;;;9.00;72.30;;;;;;4992731;28;20068;-73
2022/04/23 14:14:42;;;;;;;2.85;0.60;;;9.00;72.00;;;;;;4992634;28;20054;-73
2022/04/23 14:17:08;;;;;;;0.82;0.60;;;9.00;72.20;;;;;;4975292;28;20514;-73
2022/04/23 14:19:34;;;;;;;4.55;1.45;;;9.00;71.90;;;;;;4992723;28;20109;-73
2022/04/23 14:22:01;;;;;;;9.95;1.00;;;9.00;72.20;;;;;;4992738;28;20091;-73
2022/04/23 14:24:27;;;;;;;3.22;0.75;;;9.10;72.30;;;;;;4974943;28;20023;-72
2022/04/23 14:26:53;;;;;;;3.83;0.70;;;9.10;71.50;;;;;;4992372;28;20453;-73
2022/04/23 14:29:18;;;;;;;6.72;0.90;;;9.00;71.40;;;;;;4992456;28;20114;-71
2022/04/23 14:31:44;;;;;;;6.13;0.90;;;8.90;71.90;;;;;;4992602;28;20081;-70
2022/04/23 14:34:10;;;;;;;4.32;0.70;;;8.90;71.60;;;;;;4992350;28;20027;-69
2022/04/23 14:36:36;;;;;;;9.65;0.80;;;8.90;72.40;;;;;;4992117;28;20030;-69
2022/04/23 14:39:02;;;;;;;1.40;0.60;;;8.90;71.70;;;;;;4992655;28;20026;-71
2022/04/23 14:41:28;;;;;;;5.20;0.82;;;9.00;71.40;;;;;;4992556;28;20478;-70
2022/04/23 14:43:56;;;;;;;1.70;0.60;;;9.00;71.00;;;;;;4992552;28;20038;-71
2022/04/23 14:46:22;;;;;;;1.35;0.60;;;8.90;70.70;;;;;;4992387;28;20117;-72
2022/04/23 14:48:47;;;;;;;4.68;1.05;;;8.90;71.30;;;;;;4992764;28;20101;-72
2022/04/23 14:53:57;;;;;;;7.75;1.02;;;8.90;71.20;;;;;;4992697;28;20077;-71
2022/04/23 14:56:23;;;;;;;10.35;0.73;;;9.00;71.60;;;;;;4992150;28;20438;-71
2022/04/23 14:58:49;;;;;;;2.47;0.60;;;8.90;71.40;;;;;;4989257;28;20042;-71
2022/04/23 15:01:15;;;;;;;2.70;0.60;;;8.90;71.40;;;;;;4972957;28;20023;-71
2022/04/23 15:03:43;;;;;;;4.28;0.60;;;8.90;71.10;;;;;;4972608;28;20390;-70